Dasher, Georgia
Current Conditions -  °F | °C
As of 11:53 PM on Sunday 21 Dec 2014 (Local Time) from KVLD Reporting Station
Light Rain Light Rain  
Wind Chill: 52°   Ceiling: 300
Heat Index: 52°   Visibility: 5mi
Dew Point: 52°   Wind: 3mph
Humidity: 100%   Direction: 60°ENE
Pressure: 30.06"   Gusts: NA
Location:  30.7579°N, 83.3062°W
Report Text: KVLD 220453Z AUTO 06003KT 5SM -RA BR OVC003 11/11 A3006 RMK AO2 RAB11 SLP188 P0001 T01110111 401280111 TSNO
Loading
Personal Weather Stations






























Interactive Weather Map New forecast layout! Learn more

10-Day Weather Forecast

Advertisements
Track Severe Weather on mobile